Terminal Aerodrome Forecast
Issued by NWS

Home | Current Version | Previous Version | Text Only | Print | Product List | Glossary On
Versions: 1 2 3 4 5 6 7 8 9 10 11 12 13 14 15 16 17 18 19 20
194
FTUS43 KPAH 210539
TAFCGI
TAF
KCGI 210539Z 2106/2206 00000KT P6SM SCT100
      TEMPO 2108/2112 4SM BR SCT100
     FM211400 21004KT P6SM SCT030 BKN250=

USA.gov is the U.S. government's official web portal to all federal, state and local government web resources and services.